Time;durP1;ratioP1;P1;durP2;ratioP2;P2;SDS_P1;SDS_P2;PMS_P1;PMS_P2;Temp;Humidity;BMP_temperature;BMP_pressure;BME280_temperature;BME280_humidity;BME280_pressure;Samples;Min_cycle;Max_cycle;Signal;HPM_P1;HPM_P2
2022/08/08 00:00:17;;;;;;;2.90;2.38;;;18.90;95.80;;;;;;5072399;28;20213;-79
2022/08/08 00:03:04;;;;;;;2.65;2.45;;;18.90;95.90;;;;;;5071028;28;20217;-79
2022/08/08 00:05:56;;;;;;;3.33;2.45;;;18.90;96.40;;;;;;5074870;28;20576;-78
2022/08/08 00:08:52;;;;;;;2.75;2.35;;;18.90;96.10;;;;;;5073267;28;20201;-79
2022/08/08 00:11:35;;;;;;;2.95;2.30;;;18.30;97.50;;;;;;5070847;28;20206;-78
2022/08/08 00:14:45;;;;;;;2.60;2.40;;;18.40;97.50;;;;;;5070450;28;20217;-78
2022/08/08 00:17:55;;;;;;;2.17;1.98;;;18.50;97.40;;;;;;5067022;28;20771;-78
2022/08/08 00:20:51;;;;;;;2.40;2.20;;;18.60;97.60;;;;;;5068880;28;20224;-78
2022/08/08 00:23:45;;;;;;;2.53;2.33;;;18.80;97.20;;;;;;5071520;28;20201;-78
2022/08/08 00:26:37;;;;;;;2.65;2.45;;;18.90;96.50;;;;;;5071298;28;20693;-78
2022/08/08 00:29:16;;;;;;;2.85;2.55;;;19.00;96.10;;;;;;5071428;28;20202;-77
2022/08/08 00:31:59;;;;;;;2.95;2.65;;;18.80;96.30;;;;;;5074369;28;20212;-79
2022/08/08 00:35:13;;;;;;;2.30;2.10;;;18.70;97.10;;;;;;5071104;28;20202;-78
2022/08/08 00:41:30;;;;;;;3.72;2.60;;;18.60;97.00;;;;;;5072873;28;20212;-79
2022/08/08 00:44:40;;;;;;;3.45;2.92;;;18.70;97.10;;;;;;5038604;28;20213;-77
2022/08/08 00:48:11;;;;;;;3.38;2.65;;;18.70;97.00;;;;;;5073661;28;20205;-78
2022/08/08 00:51:45;;;;;;;2.63;2.42;;;18.60;97.30;;;;;;5065682;28;20262;-79
2022/08/08 00:54:46;;;;;;;4.40;2.50;;;18.70;97.40;;;;;;4990327;28;20307;-79
2022/08/08 00:58:02;;;;;;;4.25;2.78;;;18.80;97.30;;;;;;5005712;28;20220;-78
2022/08/08 01:01:11;;;;;;;3.13;2.83;;;19.00;96.50;;;;;;5081231;28;20198;-78
2022/08/08 01:04:21;;;;;;;3.28;2.97;;;18.80;96.60;;;;;;5072310;28;20197;-78
2022/08/08 01:07:40;;;;;;;2.85;2.35;;;18.80;97.10;;;;;;5070031;28;20235;-78
2022/08/08 01:10:58;;;;;;;3.53;2.63;;;18.50;98.40;;;;;;5026953;28;20217;-79
2022/08/08 01:14:11;;;;;;;2.95;2.65;;;18.60;98.10;;;;;;5051333;28;20201;-78
2022/08/08 01:17:27;;;;;;;3.13;2.58;;;18.40;98.70;;;;;;5066872;28;20209;-78
2022/08/08 01:20:41;;;;;;;4.95;2.80;;;18.40;98.70;;;;;;5070666;28;20197;-78
2022/08/08 01:23:58;;;;;;;3.05;2.40;;;18.40;98.80;;;;;;5046708;28;20194;-78
2022/08/08 01:27:03;;;;;;;3.90;2.78;;;18.30;98.80;;;;;;4998981;28;20217;-77
2022/08/08 01:30:05;;;;;;;3.13;2.83;;;18.30;98.70;;;;;;5067833;28;20208;-79
2022/08/08 01:33:25;;;;;;;2.90;2.60;;;18.10;99.60;;;;;;5066901;28;20202;-79
2022/08/08 01:36:48;;;;;;;3.67;2.83;;;17.90;99.90;;;;;;5038516;28;20579;-78
2022/08/08 01:39:32;;;;;;;3.00;2.80;;;17.90;99.90;;;;;;5064636;28;20190;-79
2022/08/08 01:42:25;;;;;;;3.38;3.08;;;17.90;99.90;;;;;;5073116;28;20198;-78
2022/08/08 01:45:33;;;;;;;3.42;3.05;;;17.70;99.90;;;;;;5071649;28;20206;-77
2022/08/08 01:48:14;;;;;;;3.40;3.10;;;17.20;99.90;;;;;;5075752;28;20193;-78
2022/08/08 01:51:02;;;;;;;3.25;2.95;;;17.30;99.90;;;;;;5062893;28;20194;-78
2022/08/08 01:54:00;;;;;;;3.30;2.83;;;17.30;99.90;;;;;;5090200;28;20201;-78
2022/08/08 01:56:50;;;;;;;3.20;2.90;;;17.20;99.90;;;;;;5067169;28;20226;-78
2022/08/08 01:59:43;;;;;;;4.60;2.72;;;17.10;99.90;;;;;;5073015;28;20193;-78
2022/08/08 02:02:30;;;;;;;3.70;2.80;;;16.90;99.90;;;;;;5068730;28;20205;-78
2022/08/08 02:05:21;;;;;;;3.20;2.90;;;16.60;99.90;;;;;;5066123;28;20659;-78
2022/08/08 02:08:01;;;;;;;4.10;3.10;;;16.90;99.90;;;;;;5069649;28;20637;-78
2022/08/08 02:11:08;;;;;;;4.25;3.20;;;16.80;99.90;;;;;;5063883;28;20213;-78
2022/08/08 02:13:55;;;;;;;3.13;2.60;;;16.50;99.90;;;;;;5068249;28;20556;-78
2022/08/08 02:16:55;;;;;;;3.53;3.22;;;16.30;99.90;;;;;;5065927;28;20601;-78
2022/08/08 02:19:51;;;;;;;3.63;3.33;;;16.40;99.90;;;;;;5083251;28;20194;-78
2022/08/08 02:22:40;;;;;;;4.35;3.58;;;16.30;99.90;;;;;;5064367;28;20197;-78
2022/08/08 02:25:38;;;;;;;3.35;3.05;;;16.30;99.90;;;;;;5066061;28;20564;-78
2022/08/08 02:28:24;;;;;;;4.22;2.90;;;16.50;99.90;;;;;;5068549;28;20235;-78
2022/08/08 02:31:17;;;;;;;5.45;3.17;;;16.40;99.90;;;;;;5072702;28;20197;-78
2022/08/08 02:34:13;;;;;;;4.75;3.28;;;16.40;99.90;;;;;;5074435;28;20197;-78
2022/08/08 02:37:00;;;;;;;3.65;3.25;;;16.60;99.90;;;;;;5061793;28;20232;-79
2022/08/08 02:40:03;;;;;;;4.28;3.33;;;16.70;99.90;;;;;;5067072;28;20205;-78
2022/08/08 02:43:21;;;;;;;3.38;2.90;;;16.70;99.90;;;;;;5069471;28;20197;-78
2022/08/08 02:50:00;;;;;;;3.60;3.30;;;15.90;99.90;;;;;;5047503;28;20190;-77
2022/08/08 02:53:04;;;;;;;3.47;3.15;;;15.80;99.90;;;;;;5026267;28;20197;-77
2022/08/08 02:56:18;;;;;;;3.40;3.00;;;16.20;99.90;;;;;;5061598;28;20202;-78
2022/08/08 02:59:36;;;;;;;3.97;3.33;;;16.40;99.90;;;;;;5043331;28;20600;-77
2022/08/08 03:02:42;;;;;;;4.60;3.47;;;16.40;99.90;;;;;;5004922;28;20194;-77
2022/08/08 03:05:58;;;;;;;4.90;3.42;;;16.30;99.90;;;;;;5062401;28;20193;-78
2022/08/08 03:09:11;;;;;;;3.20;2.95;;;16.40;99.90;;;;;;5063855;28;20194;-77
2022/08/08 03:12:31;;;;;;;3.22;2.80;;;16.50;99.90;;;;;;5045928;28;20574;-79
2022/08/08 03:15:45;;;;;;;3.33;3.03;;;16.70;99.90;;;;;;5076995;28;20194;-79
2022/08/08 03:21:13;;;;;;;3.30;2.97;;;16.60;99.90;;;;;;5068455;28;20545;-79
2022/08/08 03:24:00;;;;;;;3.72;3.20;;;16.60;99.90;;;;;;5072963;28;20196;-79
2022/08/08 03:26:48;;;;;;;4.30;3.65;;;16.60;99.90;;;;;;5073712;28;20227;-79
2022/08/08 03:29:39;;;;;;;3.72;2.92;;;16.50;99.90;;;;;;5065480;28;20671;-79
2022/08/08 03:35:31;;;;;;;3.72;3.33;;;16.50;99.90;;;;;;5075061;28;20202;-79
2022/08/08 03:38:09;;;;;;;3.78;3.35;;;16.40;99.90;;;;;;5075072;28;20694;-79
2022/08/08 03:40:54;;;;;;;3.97;3.58;;;16.40;99.90;;;;;;5072847;28;20205;-79
2022/08/08 03:43:29;;;;;;;4.07;3.65;;;16.40;99.90;;;;;;5070329;28;20197;-79
2022/08/08 03:46:20;;;;;;;6.38;3.55;;;16.10;99.90;;;;;;5074770;28;20220;-79
2022/08/08 03:49:01;;;;;;;4.30;3.55;;;16.00;99.90;;;;;;5055046;28;20221;-79
2022/08/08 03:51:46;;;;;;;3.78;3.47;;;16.10;99.90;;;;;;5060186;28;20702;-79
2022/08/08 03:54:19;;;;;;;4.85;3.88;;;16.00;99.90;;;;;;5074463;28;20194;-79
2022/08/08 03:56:56;;;;;;;3.80;3.50;;;15.60;99.90;;;;;;5069815;28;20225;-79
2022/08/08 03:59:44;;;;;;;5.25;3.58;;;15.40;99.90;;;;;;5075535;28;20283;-78
2022/08/08 04:02:27;;;;;;;6.38;3.53;;;15.50;99.90;;;;;;5074540;28;20205;-79
2022/08/08 04:05:13;;;;;;;5.28;4.00;;;15.70;99.90;;;;;;5070501;28;20197;-79
2022/08/08 04:07:43;;;;;;;5.82;3.70;;;15.60;99.90;;;;;;5069953;28;20214;-79
2022/08/08 04:10:15;;;;;;;7.93;4.22;;;15.50;99.90;;;;;;5075608;28;20217;-78
2022/08/08 04:12:44;;;;;;;5.88;4.40;;;15.30;99.90;;;;;;5072576;28;20202;-79
2022/08/08 04:15:15;;;;;;;4.65;4.03;;;15.30;99.90;;;;;;5073477;28;20197;-79
2022/08/08 04:17:48;;;;;;;5.93;3.67;;;15.40;99.90;;;;;;5070606;28;20220;-79
2022/08/08 04:20:22;;;;;;;7.07;4.38;;;15.50;99.90;;;;;;5056944;28;20201;-79
2022/08/08 04:23:03;;;;;;;5.97;4.10;;;15.30;99.90;;;;;;5071877;28;20221;-79
2022/08/08 04:25:34;;;;;;;5.93;4.50;;;15.30;99.90;;;;;;5070944;28;20597;-79
2022/08/08 04:28:19;;;;;;;4.75;4.13;;;15.20;99.90;;;;;;5074623;28;20213;-78
2022/08/08 04:30:52;;;;;;;5.78;4.10;;;15.00;99.90;;;;;;5069060;28;20209;-79
2022/08/08 04:33:34;;;;;;;6.38;4.30;;;15.20;99.90;;;;;;5086756;28;20198;-79
2022/08/08 04:36:02;;;;;;;6.22;5.18;;;15.30;99.90;;;;;;5069554;28;20675;-79
2022/08/08 04:41:28;;;;;;;5.38;4.32;;;15.50;99.90;;;;;;5076317;28;20192;-78
2022/08/08 04:44:12;;;;;;;6.25;4.68;;;15.40;99.90;;;;;;5085415;28;20186;-78
2022/08/08 04:46:52;;;;;;;5.65;4.35;;;15.30;99.90;;;;;;5075437;28;20213;-79
2022/08/08 04:49:30;;;;;;;4.80;4.25;;;15.10;99.90;;;;;;5076862;28;20208;-79
2022/08/08 04:52:09;;;;;;;5.40;4.60;;;15.20;99.90;;;;;;5080051;28;20204;-78
2022/08/08 04:54:53;;;;;;;5.40;4.47;;;15.10;99.90;;;;;;5077098;28;20200;-78
2022/08/08 04:57:28;;;;;;;5.13;4.47;;;15.60;99.90;;;;;;5061708;28;20213;-79
2022/08/08 05:00:08;;;;;;;6.57;4.90;;;16.00;99.90;;;;;;5079478;28;20214;-79
2022/08/08 05:02:36;;;;;;;6.78;4.88;;;16.10;99.90;;;;;;5073371;28;20276;-79
2022/08/08 05:05:07;;;;;;;6.72;5.53;;;16.10;99.90;;;;;;5075829;28;20205;-79
2022/08/08 05:07:45;;;;;;;5.07;4.25;;;16.30;99.90;;;;;;5076829;28;20225;-78
2022/08/08 05:10:28;;;;;;;6.93;4.65;;;16.40;99.90;;;;;;5077145;28;20283;-80
2022/08/08 05:13:05;;;;;;;5.70;5.13;;;16.50;99.90;;;;;;5072751;28;20213;-79
2022/08/08 05:15:46;;;;;;;7.07;5.43;;;16.70;99.90;;;;;;5077683;28;20208;-80
2022/08/08 05:18:38;;;;;;;8.18;6.10;;;16.80;99.90;;;;;;5068354;28;20205;-80
2022/08/08 05:21:28;;;;;;;5.68;4.95;;;16.90;99.90;;;;;;5082001;28;20194;-79
2022/08/08 05:27:14;;;;;;;5.00;4.50;;;17.20;99.90;;;;;;5071136;28;20218;-78
2022/08/08 05:29:53;;;;;;;9.30;5.90;;;17.70;99.90;;;;;;5068151;28;20197;-78
2022/08/08 05:32:32;;;;;;;7.13;5.03;;;17.80;99.90;;;;;;5068819;28;20212;-79
2022/08/08 05:35:18;;;;;;;6.72;5.13;;;18.10;99.90;;;;;;5073950;28;20224;-78
2022/08/08 05:38:07;;;;;;;9.27;5.95;;;18.40;99.90;;;;;;5071993;28;20222;-79
2022/08/08 05:40:55;;;;;;;6.70;5.78;;;18.30;99.90;;;;;;5074512;28;20197;-80
2022/08/08 05:43:29;;;;;;;6.18;5.10;;;18.40;99.90;;;;;;5069877;28;20194;-79
2022/08/08 05:46:15;;;;;;;7.35;6.25;;;18.50;99.90;;;;;;5073439;28;20206;-78
2022/08/08 05:48:55;;;;;;;5.80;4.90;;;18.70;99.90;;;;;;5071902;28;20208;-78
2022/08/08 05:54:41;;;;;;;9.88;5.78;;;19.20;99.90;;;;;;5074652;28;20193;-80
2022/08/08 05:57:32;;;;;;;9.02;6.05;;;19.10;99.90;;;;;;5074340;28;20217;-80
2022/08/08 06:00:09;;;;;;;5.80;5.20;;;19.30;99.90;;;;;;5077721;28;20226;-80
2022/08/08 06:03:15;;;;;;;9.23;5.88;;;19.20;99.90;;;;;;5076471;28;20197;-81
2022/08/08 06:06:05;;;;;;;9.73;5.25;;;19.30;99.90;;;;;;5074269;28;20679;-78
2022/08/08 06:08:43;;;;;;;7.50;6.50;;;19.10;99.90;;;;;;5069941;28;20220;-82
2022/08/08 06:11:21;;;;;;;10.25;7.47;;;18.90;99.90;;;;;;5071842;28;20601;-82
2022/08/08 06:13:56;;;;;;;7.20;6.25;;;19.00;99.90;;;;;;5070693;28;20201;-83
2022/08/08 06:16:40;;;;;;;9.07;6.40;;;19.30;99.90;;;;;;5070324;28;20228;-83
2022/08/08 06:19:25;;;;;;;10.85;6.07;;;19.40;99.90;;;;;;5074593;28;20206;-83
2022/08/08 06:22:10;;;;;;;10.75;6.60;;;19.50;99.90;;;;;;5075197;28;20197;-82
2022/08/08 06:24:50;;;;;;;7.65;6.82;;;19.60;99.90;;;;;;5069147;28;20222;-83
2022/08/08 06:27:40;;;;;;;8.25;6.35;;;19.40;99.90;;;;;;5072115;28;20714;-83
2022/08/08 06:30:18;;;;;;;5.97;5.45;;;19.30;99.90;;;;;;5066037;28;20202;-84
2022/08/08 06:33:00;;;;;;;7.65;6.85;;;19.20;99.90;;;;;;5070890;28;20202;-82
2022/08/08 06:35:32;;;;;;;8.05;7.03;;;19.20;99.90;;;;;;5068797;28;20212;-84
2022/08/08 06:38:16;;;;;;;8.57;7.10;;;19.10;99.90;;;;;;5064754;28;20193;-83
2022/08/08 06:40:58;;;;;;;10.13;7.30;;;19.10;99.90;;;;;;5070703;28;20201;-83
2022/08/08 06:43:55;;;;;;;9.30;6.90;;;19.00;99.90;;;;;;5068098;28;20603;-83
2022/08/08 06:46:38;;;;;;;7.75;6.97;;;19.20;99.90;;;;;;5065708;28;20710;-83
2022/08/08 06:49:14;;;;;;;7.75;6.35;;;19.40;99.90;;;;;;5072629;28;20194;-81
2022/08/08 06:51:53;;;;;;;8.27;6.53;;;19.50;99.90;;;;;;5072289;28;20201;-79
2022/08/08 06:54:28;;;;;;;7.15;6.45;;;19.60;99.90;;;;;;5076012;28;20197;-80
2022/08/08 06:57:02;;;;;;;10.55;7.85;;;19.50;99.90;;;;;;5056971;28;20214;-80
2022/08/08 06:59:38;;;;;;;10.13;7.57;;;19.00;99.90;;;;;;5076836;28;20841;-80
2022/08/08 07:02:11;;;;;;;8.07;7.28;;;19.00;99.90;;;;;;5075201;28;20189;-80
2022/08/08 07:04:53;;;;;;;7.95;7.15;;;19.10;99.90;;;;;;5076150;28;20201;-79
2022/08/08 07:07:33;;;;;;;7.68;6.88;;;19.50;99.90;;;;;;5077663;28;20817;-81
2022/08/08 07:10:07;;;;;;;7.40;6.70;;;19.80;99.90;;;;;;5057021;28;20202;-80
2022/08/08 07:12:41;;;;;;;9.77;7.95;;;19.50;99.90;;;;;;5079927;28;20201;-79
2022/08/08 07:15:11;;;;;;;7.85;6.65;;;19.70;99.90;;;;;;5078264;28;20201;-79
2022/08/08 07:17:46;;;;;;;8.32;6.13;;;19.90;99.90;;;;;;5079736;28;20218;-79
2022/08/08 07:20:19;;;;;;;9.68;8.02;;;20.10;99.90;;;;;;5077710;28;20217;-79
2022/08/08 07:22:56;;;;;;;8.75;6.45;;;20.20;99.10;;;;;;5077175;28;20667;-80
2022/08/08 07:25:26;;;;;;;8.00;7.20;;;20.00;99.80;;;;;;5083002;28;20205;-80
2022/08/08 07:28:03;;;;;;;9.90;6.80;;;20.20;99.50;;;;;;5081758;28;20221;-80
2022/08/08 07:30:32;;;;;;;7.93;6.85;;;20.20;99.30;;;;;;5082260;28;20193;-81
2022/08/08 07:33:01;;;;;;;7.43;6.68;;;20.20;99.50;;;;;;5082848;28;20267;-79
2022/08/08 07:35:32;;;;;;;7.93;6.72;;;20.30;99.50;;;;;;5083465;28;20655;-79
2022/08/08 07:38:00;;;;;;;7.53;6.60;;;20.20;98.50;;;;;;5079287;28;20201;-79
2022/08/08 07:40:42;;;;;;;7.18;6.50;;;20.10;99.00;;;;;;5085554;28;20208;-79
2022/08/08 07:43:12;;;;;;;8.45;7.50;;;20.20;99.00;;;;;;5090291;28;20194;-81
2022/08/08 07:45:45;;;;;;;9.05;6.78;;;20.10;99.80;;;;;;5080953;28;20209;-79
2022/08/08 07:48:13;;;;;;;8.02;7.03;;;20.40;99.40;;;;;;5081755;28;20197;-80
2022/08/08 07:50:41;;;;;;;8.95;7.55;;;20.60;98.90;;;;;;5080149;28;20189;-80
2022/08/08 07:53:18;;;;;;;6.80;6.15;;;20.50;98.20;;;;;;5076856;28;20667;-80
2022/08/08 07:55:51;;;;;;;8.40;6.97;;;20.50;98.50;;;;;;5082510;28;20205;-81
2022/08/08 07:58:31;;;;;;;7.63;6.50;;;20.50;98.30;;;;;;5085169;28;20189;-80
2022/08/08 08:01:05;;;;;;;8.68;6.72;;;20.60;98.40;;;;;;5077244;28;20221;-80
2022/08/08 08:03:41;;;;;;;7.95;6.03;;;20.70;98.20;;;;;;5085659;28;20204;-79
2022/08/08 08:06:12;;;;;;;8.52;6.53;;;20.80;97.40;;;;;;5085372;28;20229;-80
2022/08/08 08:08:48;;;;;;;9.38;6.85;;;20.90;96.90;;;;;;5085955;28;20566;-80
2022/08/08 08:11:22;;;;;;;8.13;6.82;;;20.70;97.70;;;;;;5084641;28;20202;-81
2022/08/08 08:13:57;;;;;;;10.90;6.53;;;20.60;98.20;;;;;;5085245;28;20194;-80
2022/08/08 08:16:28;;;;;;;6.70;6.07;;;20.70;98.00;;;;;;5081981;28;20217;-80
2022/08/08 08:19:01;;;;;;;6.70;6.00;;;20.90;97.30;;;;;;5081207;28;20190;-80
2022/08/08 08:21:39;;;;;;;9.63;6.50;;;21.20;96.60;;;;;;5084044;28;20193;-80
2022/08/08 08:24:08;;;;;;;8.38;6.47;;;21.30;96.50;;;;;;5080966;28;20193;-81
2022/08/08 08:26:38;;;;;;;7.65;6.63;;;21.20;96.80;;;;;;5084872;28;20232;-80
2022/08/08 08:29:06;;;;;;;10.20;6.28;;;21.20;96.70;;;;;;5081185;28;20205;-80
2022/08/08 08:31:34;;;;;;;9.20;6.53;;;21.20;96.60;;;;;;5082302;28;20194;-79
2022/08/08 08:34:02;;;;;;;7.00;6.00;;;21.40;95.50;;;;;;5082407;28;20200;-81
2022/08/08 08:36:30;;;;;;;6.70;5.78;;;21.40;95.50;;;;;;5077360;28;20220;-79
2022/08/08 08:38:59;;;;;;;7.07;6.03;;;21.30;95.60;;;;;;5072046;28;20198;-80
2022/08/08 08:41:34;;;;;;;8.90;6.70;;;21.30;96.00;;;;;;5079746;28;20702;-80
2022/08/08 08:44:04;;;;;;;9.02;5.93;;;21.30;95.90;;;;;;5078754;28;20663;-81
2022/08/08 08:46:33;;;;;;;7.03;5.55;;;21.50;95.80;;;;;;5077076;28;20231;-81
2022/08/08 08:49:01;;;;;;;8.38;5.32;;;21.60;95.60;;;;;;5076244;28;20198;-80
2022/08/08 08:51:32;;;;;;;6.50;5.75;;;21.70;95.20;;;;;;5077679;28;20190;-80
2022/08/08 08:54:05;;;;;;;6.10;5.45;;;21.60;95.40;;;;;;5092374;28;20199;-79
2022/08/08 08:56:36;;;;;;;9.63;5.55;;;21.80;94.60;;;;;;5081440;28;20713;-80
2022/08/08 08:59:20;;;;;;;6.03;4.88;;;21.70;93.80;;;;;;5075842;28;20194;-79
2022/08/08 09:01:55;;;;;;;9.80;5.30;;;21.80;93.40;;;;;;5081859;28;20189;-79
2022/08/08 09:04:33;;;;;;;5.55;4.97;;;22.00;93.70;;;;;;5077620;28;20190;-79
2022/08/08 09:07:03;;;;;;;7.25;5.50;;;22.10;93.20;;;;;;5074712;28;20221;-79
2022/08/08 09:09:34;;;;;;;5.80;5.13;;;22.10;92.70;;;;;;5082464;28;20196;-79
2022/08/08 09:12:10;;;;;;;6.47;5.15;;;22.20;92.40;;;;;;5084093;28;20186;-80
2022/08/08 09:14:44;;;;;;;6.28;5.10;;;22.10;92.30;;;;;;5083725;28;20190;-80
2022/08/08 09:17:13;;;;;;;5.40;4.72;;;22.20;92.10;;;;;;5086807;28;20209;-79
2022/08/08 09:19:42;;;;;;;5.03;4.53;;;22.10;91.50;;;;;;5080756;28;20197;-82
2022/08/08 09:22:11;;;;;;;6.30;4.20;;;22.20;91.60;;;;;;5082541;28;20553;-81
2022/08/08 09:24:39;;;;;;;4.78;3.92;;;22.30;91.50;;;;;;5086525;28;20701;-82
2022/08/08 09:27:08;;;;;;;6.28;4.18;;;22.40;90.80;;;;;;5086194;28;20235;-82
2022/08/08 09:29:48;;;;;;;8.68;4.78;;;22.40;91.10;;;;;;5080215;28;20197;-82
2022/08/08 09:32:18;;;;;;;5.43;4.28;;;22.60;91.10;;;;;;5081422;28;20194;-82
2022/08/08 09:34:51;;;;;;;5.93;3.90;;;22.60;90.60;;;;;;5083032;28;20196;-82
2022/08/08 09:37:27;;;;;;;5.28;4.10;;;22.70;90.70;;;;;;5081605;28;20213;-81
2022/08/08 09:40:02;;;;;;;5.43;4.72;;;22.80;90.40;;;;;;5085567;28;20190;-82
2022/08/08 09:42:36;;;;;;;6.05;4.03;;;22.90;90.70;;;;;;5080245;28;20203;-83
2022/08/08 09:45:07;;;;;;;5.13;4.57;;;22.90;90.30;;;;;;5079662;28;20186;-82
2022/08/08 09:47:37;;;;;;;4.95;4.10;;;22.90;90.00;;;;;;5085567;28;20217;-81
2022/08/08 09:50:08;;;;;;;5.65;4.10;;;22.90;90.50;;;;;;5083444;28;20206;-82
2022/08/08 09:52:36;;;;;;;5.75;5.20;;;23.00;90.60;;;;;;5084852;28;20201;-82
2022/08/08 09:55:04;;;;;;;6.35;4.38;;;23.00;91.20;;;;;;5086918;28;20197;-82
2022/08/08 09:57:34;;;;;;;5.07;4.57;;;23.10;90.10;;;;;;5079592;28;20237;-81
2022/08/08 10:00:10;;;;;;;4.93;4.32;;;23.10;89.20;;;;;;5085491;28;20194;-81
2022/08/08 10:02:43;;;;;;;4.90;4.07;;;23.10;88.30;;;;;;5086834;28;20205;-81
2022/08/08 10:05:13;;;;;;;4.78;4.13;;;23.10;88.90;;;;;;5086078;28;20201;-81
2022/08/08 10:07:46;;;;;;;4.47;4.07;;;23.20;88.90;;;;;;5085407;28;20217;-82
2022/08/08 10:10:14;;;;;;;4.63;4.15;;;23.20;86.50;;;;;;5085404;28;20212;-82
2022/08/08 10:12:41;;;;;;;6.88;3.90;;;23.20;86.20;;;;;;5080604;28;20206;-83
2022/08/08 10:15:11;;;;;;;4.97;4.25;;;23.30;86.10;;;;;;5088722;28;20203;-82
2022/08/08 10:17:46;;;;;;;4.72;4.30;;;23.20;84.60;;;;;;5086501;28;20236;-81
2022/08/08 10:20:14;;;;;;;4.00;3.60;;;23.40;83.80;;;;;;5089237;28;20185;-82
2022/08/08 10:22:52;;;;;;;7.07;5.28;;;23.50;83.00;;;;;;5079113;28;20206;-83
2022/08/08 10:25:21;;;;;;;8.07;4.95;;;23.50;82.70;;;;;;5081727;28;20209;-83
2022/08/08 10:27:52;;;;;;;4.80;3.90;;;23.60;83.70;;;;;;5087319;28;20256;-82
2022/08/08 10:30:23;;;;;;;4.57;4.18;;;23.60;82.60;;;;;;5086485;28;20201;-82
2022/08/08 10:32:54;;;;;;;4.82;4.38;;;23.60;81.90;;;;;;5086831;28;20217;-82
2022/08/08 10:35:24;;;;;;;5.00;3.88;;;23.80;81.50;;;;;;5086198;28;20206;-81
2022/08/08 10:37:55;;;;;;;5.00;4.07;;;23.80;81.30;;;;;;5079815;28;20228;-81
2022/08/08 10:40:24;;;;;;;5.07;3.80;;;23.90;80.50;;;;;;5082143;28;20186;-83
2022/08/08 10:42:55;;;;;;;4.82;4.15;;;23.90;80.20;;;;;;5082781;28;20206;-82
2022/08/08 10:45:25;;;;;;;5.07;4.07;;;23.90;79.20;;;;;;5083765;28;20196;-82
2022/08/08 10:47:55;;;;;;;3.88;3.47;;;23.90;79.00;;;;;;5081245;28;20225;-82
2022/08/08 10:50:31;;;;;;;4.22;3.58;;;23.80;77.40;;;;;;5087337;28;20188;-82
2022/08/08 10:53:03;;;;;;;5.95;4.15;;;23.90;78.00;;;;;;5085576;28;20201;-82
2022/08/08 10:55:31;;;;;;;5.38;3.97;;;23.90;77.10;;;;;;5082896;28;20199;-82
2022/08/08 10:58:03;;;;;;;4.10;3.47;;;24.00;78.00;;;;;;5080311;28;20226;-83
2022/08/08 11:00:33;;;;;;;4.97;3.70;;;24.10;78.40;;;;;;5083322;28;20206;-84
2022/08/08 11:03:11;;;;;;;5.72;3.65;;;24.10;77.10;;;;;;5082562;28;20711;-83
2022/08/08 11:05:44;;;;;;;4.15;3.75;;;24.00;77.10;;;;;;5080252;28;20206;-84
2022/08/08 11:08:21;;;;;;;5.40;3.70;;;24.30;78.30;;;;;;5085891;28;20194;-83
2022/08/08 11:10:49;;;;;;;3.63;3.33;;;24.40;76.80;;;;;;5084234;28;20216;-83
2022/08/08 11:13:22;;;;;;;3.85;3.55;;;24.50;75.40;;;;;;5088481;28;20200;-82
2022/08/08 11:15:55;;;;;;;4.60;3.65;;;24.40;75.10;;;;;;5089171;28;20209;-81
2022/08/08 11:18:24;;;;;;;3.72;3.10;;;24.50;74.30;;;;;;5086577;28;20186;-82
2022/08/08 11:20:52;;;;;;;3.60;3.03;;;24.70;74.90;;;;;;5087494;28;20205;-82
2022/08/08 11:23:21;;;;;;;3.88;3.50;;;24.50;73.80;;;;;;5088726;28;20208;-82
2022/08/08 11:25:52;;;;;;;3.22;2.92;;;24.50;72.90;;;;;;5081053;28;20208;-82
2022/08/08 11:28:24;;;;;;;4.47;3.50;;;24.50;73.40;;;;;;5089133;28;20205;-83
2022/08/08 11:30:55;;;;;;;3.67;3.30;;;24.70;74.20;;;;;;5088347;28;20202;-82
2022/08/08 11:33:24;;;;;;;4.78;3.72;;;24.80;72.50;;;;;;5087842;28;20186;-82
2022/08/08 11:35:52;;;;;;;3.60;3.30;;;24.80;72.10;;;;;;5087666;28;20209;-82
2022/08/08 11:38:20;;;;;;;3.90;3.47;;;24.70;71.00;;;;;;5092254;28;20193;-82
2022/08/08 11:40:49;;;;;;;5.95;3.90;;;24.80;70.30;;;;;;5091086;28;20198;-82
2022/08/08 11:43:18;;;;;;;3.88;3.53;;;24.90;68.50;;;;;;5093427;28;20204;-82
2022/08/08 11:45:46;;;;;;;3.40;2.95;;;25.10;68.60;;;;;;5090996;28;20197;-82
2022/08/08 11:48:16;;;;;;;5.28;4.00;;;25.40;68.20;;;;;;5093327;28;20201;-82
2022/08/08 11:50:45;;;;;;;4.18;3.05;;;25.20;67.80;;;;;;5089557;28;20185;-82
2022/08/08 11:53:13;;;;;;;4.18;3.08;;;25.30;66.90;;;;;;5091470;28;20197;-83
2022/08/08 11:55:47;;;;;;;3.50;3.20;;;25.20;66.30;;;;;;5090916;28;20205;-81
2022/08/08 11:58:15;;;;;;;4.20;3.20;;;25.00;66.40;;;;;;5086526;28;20200;-82
2022/08/08 12:00:47;;;;;;;3.50;3.20;;;25.00;64.70;;;;;;5093969;28;20194;-82
2022/08/08 12:03:22;;;;;;;4.15;2.63;;;25.20;64.70;;;;;;5090884;28;20217;-83
2022/08/08 12:05:50;;;;;;;3.88;3.30;;;25.30;64.80;;;;;;5092199;28;20197;-84
2022/08/08 12:08:30;;;;;;;3.75;3.17;;;25.50;63.50;;;;;;5091796;28;20200;-83
2022/08/08 12:11:01;;;;;;;8.27;3.22;;;25.60;61.10;;;;;;5090658;28;20201;-83
2022/08/08 12:13:28;;;;;;;3.70;3.40;;;25.70;61.30;;;;;;5085035;28;20208;-84
2022/08/08 12:16:07;;;;;;;3.47;3.17;;;25.90;63.10;;;;;;5081173;28;20224;-83
2022/08/08 12:18:46;;;;;;;3.08;2.78;;;26.30;62.30;;;;;;5088668;28;20193;-84
2022/08/08 12:21:23;;;;;;;3.53;3.22;;;26.20;62.20;;;;;;5080785;28;20927;-83
2022/08/08 12:23:51;;;;;;;3.22;2.67;;;26.30;61.00;;;;;;5086277;28;20205;-83
2022/08/08 12:26:22;;;;;;;3.63;2.72;;;26.30;60.30;;;;;;5088311;28;20217;-83
2022/08/08 12:28:55;;;;;;;3.47;3.17;;;26.70;59.50;;;;;;5089287;28;20193;-84
2022/08/08 12:31:33;;;;;;;3.42;2.85;;;26.60;58.00;;;;;;5090110;28;20659;-83
2022/08/08 12:34:02;;;;;;;5.00;3.20;;;26.60;58.90;;;;;;5089757;28;20205;-84
2022/08/08 12:36:39;;;;;;;4.43;3.47;;;26.30;58.40;;;;;;5089280;28;20221;-84
2022/08/08 12:39:07;;;;;;;3.75;2.90;;;26.00;59.50;;;;;;5086238;28;20669;-83
2022/08/08 12:41:35;;;;;;;3.42;3.13;;;26.10;59.00;;;;;;5087828;28;20603;-83
2022/08/08 12:44:07;;;;;;;4.80;2.88;;;26.30;58.40;;;;;;5088621;28;20204;-83
2022/08/08 12:46:36;;;;;;;3.00;2.70;;;26.40;57.60;;;;;;5087818;28;20221;-83
2022/08/08 12:49:06;;;;;;;3.15;2.85;;;26.80;57.00;;;;;;5088939;28;20185;-85
2022/08/08 12:51:41;;;;;;;3.15;2.60;;;26.80;55.20;;;;;;5077294;28;20206;-84
2022/08/08 12:54:09;;;;;;;2.95;2.60;;;27.00;56.30;;;;;;5086102;28;20204;-84
2022/08/08 12:56:38;;;;;;;3.15;2.90;;;27.20;58.30;;;;;;5084583;28;20228;-85
2022/08/08 12:59:16;;;;;;;3.17;2.88;;;27.60;56.50;;;;;;5081304;28;20204;-83
2022/08/08 13:01:51;;;;;;;3.10;2.80;;;27.60;55.90;;;;;;5088377;28;20222;-85
2022/08/08 13:04:23;;;;;;;4.18;3.28;;;27.50;55.90;;;;;;5090035;28;20197;-83
2022/08/08 13:06:56;;;;;;;3.55;2.97;;;27.70;55.50;;;;;;5086012;28;20226;-84
2022/08/08 13:09:38;;;;;;;3.58;3.00;;;27.60;55.80;;;;;;5089389;28;20208;-84
2022/08/08 13:12:15;;;;;;;6.10;3.65;;;27.70;54.80;;;;;;5087966;28;20192;-85
2022/08/08 13:14:46;;;;;;;3.30;2.85;;;27.50;55.10;;;;;;5083728;28;20207;-87
2022/08/08 13:17:15;;;;;;;4.20;3.20;;;27.50;56.10;;;;;;5088016;28;20209;-84
2022/08/08 13:19:44;;;;;;;3.92;3.28;;;27.30;55.50;;;;;;5084962;28;20211;-85
2022/08/08 13:22:15;;;;;;;3.13;2.80;;;26.90;55.80;;;;;;5083577;28;20586;-83
2022/08/08 13:24:43;;;;;;;3.38;3.05;;;27.40;56.00;;;;;;5090541;28;20204;-83
2022/08/08 13:27:14;;;;;;;3.28;2.97;;;27.70;55.30;;;;;;5085887;28;20291;-84
2022/08/08 13:29:50;;;;;;;4.13;3.03;;;27.80;54.70;;;;;;5087645;28;20213;-86
2022/08/08 13:32:18;;;;;;;3.97;3.13;;;28.10;53.70;;;;;;5086460;28;20198;-86
2022/08/08 13:34:50;;;;;;;3.30;3.00;;;28.30;52.90;;;;;;5088829;28;20207;-84
2022/08/08 13:37:19;;;;;;;3.08;2.78;;;28.50;53.00;;;;;;5085611;28;20213;-85
2022/08/08 13:39:49;;;;;;;3.88;3.45;;;28.30;52.40;;;;;;5084886;28;20212;-83
2022/08/08 13:42:23;;;;;;;3.42;3.08;;;28.40;52.40;;;;;;5079558;28;20292;-81
2022/08/08 13:44:55;;;;;;;4.28;3.08;;;27.90;53.10;;;;;;5074097;28;20587;-82
2022/08/08 13:47:24;;;;;;;3.40;3.10;;;28.00;53.30;;;;;;5080479;28;20230;-82
2022/08/08 13:50:02;;;;;;;3.60;3.00;;;28.10;53.00;;;;;;5075605;28;20215;-78
2022/08/08 13:52:33;;;;;;;5.05;3.20;;;28.20;52.10;;;;;;5080960;28;20185;-84
2022/08/08 13:55:05;;;;;;;3.03;2.72;;;28.00;52.70;;;;;;5080579;28;20198;-81
2022/08/08 13:57:34;;;;;;;3.50;3.13;;;28.50;51.70;;;;;;5077076;28;20225;-84
2022/08/08 14:00:08;;;;;;;3.88;2.83;;;28.70;50.60;;;;;;5085901;28;20220;-83
2022/08/08 14:02:40;;;;;;;4.57;3.08;;;28.70;51.70;;;;;;5084574;28;20217;-80
2022/08/08 14:05:11;;;;;;;5.82;3.80;;;28.70;51.00;;;;;;5079967;28;20675;-81
2022/08/08 14:07:40;;;;;;;4.00;3.08;;;28.20;52.80;;;;;;5077414;28;20228;-81
2022/08/08 14:10:10;;;;;;;5.45;2.70;;;27.70;53.70;;;;;;5076018;28;20201;-80
2022/08/08 14:12:39;;;;;;;4.40;3.58;;;27.80;55.20;;;;;;5078380;28;20202;-80